Time,TemperatureF,DewpointF,PressureIn,WindDirection,WindDirectionDegrees,WindSpeedMPH,WindSpeedGustMPH,Humidity,HourlyPrecipIn,Conditions,Clouds,dailyrainin,SoftwareType,DateUTC
2013-06-27 00:05:00,67.0,65.2,29.78,West,269,1.0,2.0,94,0.00,,,0.00,Wunderground v.1.15,2013-06-27 04:05:00,
2013-06-27 00:10:00,66.9,65.4,29.78,West,269,2.0,2.0,95,0.00,,,0.00,Wunderground v.1.15,2013-06-27 04:10:00,
2013-06-27 00:15:00,66.9,65.4,29.77,West,269,1.0,2.0,95,0.00,,,0.00,Wunderground v.1.15,2013-06-27 04:15:00,
2013-06-27 00:20:00,66.8,65.3,29.77,West,269,0.0,0.0,95,0.00,,,0.00,Wunderground v.1.15,2013-06-27 04:20:00,
2013-06-27 00:25:00,66.8,65.3,29.78,West,269,0.0,0.0,95,0.00,,,0.00,Wunderground v.1.15,2013-06-27 04:25:00,
2013-06-27 00:35:00,66.3,64.8,29.78,West,269,0.0,0.0,95,0.00,,,0.00,Wunderground v.1.15,2013-06-27 04:35:00,
2013-06-27 00:40:00,66.2,64.7,29.77,West,269,0.0,0.0,95,0.00,,,0.00,Wunderground v.1.15,2013-06-27 04:40:00,
2013-06-27 00:50:00,65.9,64.4,29.77,West,269,0.0,2.0,95,0.00,,,0.00,Wunderground v.1.15,2013-06-27 04:50:00,
2013-06-27 00:55:00,65.8,64.3,29.77,West,269,1.0,2.0,95,0.00,,,0.00,Wunderground v.1.15,2013-06-27 04:55:00,
2013-06-27 01:05:00,65.8,64.6,29.77,West,269,0.0,2.0,96,0.00,,,0.00,Wunderground v.1.15,2013-06-27 05:05:00,
2013-06-27 01:10:00,65.7,64.5,29.77,West,269,0.0,0.0,96,0.00,,,0.00,Wunderground v.1.15,2013-06-27 05:10:00,
2013-06-27 01:20:00,65.6,64.4,29.76,West,269,0.0,0.0,96,0.00,,,0.00,Wunderground v.1.15,2013-06-27 05:20:00,
2013-06-27 01:30:00,65.5,64.6,29.76,West,269,0.0,0.0,97,0.00,,,0.00,Wunderground v.1.15,2013-06-27 05:30:00,
2013-06-27 01:40:00,65.3,64.4,29.77,West,269,1.0,3.0,97,0.00,,,0.00,Wunderground v.1.15,2013-06-27 05:40:00,
2013-06-27 01:45:00,65.3,64.4,29.77,West,269,2.0,3.0,97,0.00,,,0.00,Wunderground v.1.15,2013-06-27 05:45:00,
2013-06-27 01:55:00,65.2,64.3,29.76,West,269,3.0,3.0,97,0.00,,,0.00,Wunderground v.1.15,2013-06-27 05:55:00,
2013-06-27 02:05:00,65.4,64.8,29.76,West,269,3.0,3.0,98,0.00,,,0.00,Wunderground v.1.15,2013-06-27 06:05:00,
2013-06-27 02:10:00,65.4,64.8,29.76,West,269,2.0,3.0,98,0.00,,,0.00,Wunderground v.1.15,2013-06-27 06:10:00,
2013-06-27 02:20:00,65.4,64.8,29.76,West,269,2.0,2.0,98,0.00,,,0.00,Wunderground v.1.15,2013-06-27 06:20:00,
2013-06-27 02:25:00,65.4,64.8,29.75,West,269,2.0,2.0,98,0.00,,,0.00,Wunderground v.1.15,2013-06-27 06:25:00,
2013-06-27 02:35:00,65.3,64.7,29.75,West,269,3.0,3.0,98,0.00,,,0.00,Wunderground v.1.15,2013-06-27 06:35:00,
2013-06-27 02:40:00,65.3,64.7,29.76,West,269,3.0,4.0,98,0.00,,,0.00,Wunderground v.1.15,2013-06-27 06:40:00,
2013-06-27 02:50:00,65.2,64.6,29.75,West,269,3.0,3.0,98,0.00,,,0.00,Wunderground v.1.15,2013-06-27 06:50:00,
2013-06-27 02:55:00,65.2,64.6,29.75,West,269,2.0,3.0,98,0.00,,,0.00,Wunderground v.1.15,2013-06-27 06:55:00,
2013-06-27 03:05:00,65.1,64.5,29.74,West,269,1.0,3.0,98,0.00,,,0.00,Wunderground v.1.15,2013-06-27 07:05:00,
2013-06-27 03:10:00,65.0,64.4,29.75,West,269,2.0,2.0,98,0.00,,,0.00,Wunderground v.1.15,2013-06-27 07:10:00,
2013-06-27 03:20:00,64.8,64.2,29.75,West,269,1.0,1.0,98,0.00,,,0.00,Wunderground v.1.15,2013-06-27 07:20:00,
2013-06-27 03:30:00,64.9,64.3,29.74,West,269,1.0,1.0,98,0.00,,,0.00,Wunderground v.1.15,2013-06-27 07:30:00,
2013-06-27 03:35:00,64.8,64.2,29.75,West,269,0.0,1.0,98,0.00,,,0.00,Wunderground v.1.15,2013-06-27 07:35:00,
2013-06-27 03:50:00,64.4,63.8,29.74,West,269,0.0,0.0,98,0.00,,,0.00,Wunderground v.1.15,2013-06-27 07:50:00,
2013-06-27 04:00:00,64.0,63.4,29.74,West,269,0.0,0.0,98,0.00,,,0.00,Wunderground v.1.15,2013-06-27 08:00:00,
2013-06-27 04:05:00,63.9,63.3,29.74,West,269,1.0,1.0,98,0.00,,,0.00,Wunderground v.1.15,2013-06-27 08:05:00,
2013-06-27 04:15:00,64.0,63.4,29.74,West,269,0.0,0.0,98,0.00,,,0.00,Wunderground v.1.15,2013-06-27 08:15:00,
2013-06-27 04:20:00,63.9,63.3,29.75,West,269,0.0,0.0,98,0.00,,,0.00,Wunderground v.1.15,2013-06-27 08:20:00,
2013-06-27 04:30:00,63.6,63.0,29.75,West,269,0.0,0.0,98,0.00,,,0.00,Wunderground v.1.15,2013-06-27 08:30:00,
2013-06-27 04:35:00,63.5,62.9,29.75,West,269,0.0,2.0,98,0.00,,,0.00,Wunderground v.1.15,2013-06-27 08:35:00,
2013-06-27 04:45:00,63.3,62.7,29.75,West,269,2.0,2.0,98,0.00,,,0.00,Wunderground v.1.15,2013-06-27 08:45:00,
2013-06-27 04:50:00,63.4,62.8,29.75,West,269,1.0,1.0,98,0.00,,,0.00,Wunderground v.1.15,2013-06-27 08:50:00,
2013-06-27 05:00:00,63.7,63.4,29.75,West,269,2.0,2.0,99,0.00,,,0.00,Wunderground v.1.15,2013-06-27 09:00:00,
2013-06-27 05:10:00,63.8,63.5,29.75,West,269,3.0,3.0,99,0.00,,,0.00,Wunderground v.1.15,2013-06-27 09:10:00,
2013-06-27 05:20:00,63.9,63.6,29.75,West,269,1.0,1.0,99,0.00,,,0.00,Wunderground v.1.15,2013-06-27 09:20:00,
2013-06-27 05:25:00,64.0,63.7,29.74,West,269,1.0,1.0,99,0.00,,,0.00,Wunderground v.1.15,2013-06-27 09:25:00,
2013-06-27 05:35:00,64.1,63.8,29.74,West,269,0.0,1.0,99,0.00,,,0.00,Wunderground v.1.15,2013-06-27 09:35:00,
2013-06-27 05:40:00,64.1,63.8,29.74,West,269,0.0,0.0,99,0.00,,,0.00,Wunderground v.1.15,2013-06-27 09:40:00,
2013-06-27 05:50:00,63.9,63.6,29.74,West,269,1.0,2.0,99,0.00,,,0.00,Wunderground v.1.15,2013-06-27 09:50:00,
2013-06-27 05:55:00,63.7,63.4,29.74,West,269,1.0,2.0,99,0.00,,,0.00,Wunderground v.1.15,2013-06-27 09:55:00,
2013-06-27 06:05:00,63.8,63.5,29.74,West,269,3.0,4.0,99,0.00,,,0.00,Wunderground v.1.15,2013-06-27 10:05:00,
2013-06-27 06:10:00,63.8,63.5,29.74,West,269,3.0,3.0,99,0.00,,,0.00,Wunderground v.1.15,2013-06-27 10:10:00,
2013-06-27 06:20:00,64.0,63.7,29.74,West,269,3.0,3.0,99,0.00,,,0.00,Wunderground v.1.15,2013-06-27 10:20:00,
2013-06-27 06:25:00,64.1,63.8,29.74,West,269,2.0,3.0,99,0.00,,,0.00,Wunderground v.1.15,2013-06-27 10:25:00,
2013-06-27 06:35:00,64.5,64.5,29.75,West,269,2.0,3.0,100,0.00,,,0.00,Wunderground v.1.15,2013-06-27 10:35:00,
2013-06-27 06:45:00,65.0,65.0,29.74,West,269,3.0,4.0,100,0.00,,,0.00,Wunderground v.1.15,2013-06-27 10:45:00,
2013-06-27 06:50:00,65.2,65.2,29.74,West,269,3.0,3.0,100,0.00,,,0.00,Wunderground v.1.15,2013-06-27 10:50:00,
2013-06-27 07:00:00,65.8,65.8,29.74,West,269,2.0,2.0,100,0.00,,,0.00,Wunderground v.1.15,2013-06-27 11:00:00,
2013-06-27 07:05:00,66.1,66.1,29.74,West,269,2.0,2.0,100,0.00,,,0.00,Wunderground v.1.15,2013-06-27 11:05:00,
2013-06-27 07:15:00,66.8,66.8,29.74,West,269,2.0,3.0,100,0.00,,,0.00,Wunderground v.1.15,2013-06-27 11:15:00,
2013-06-27 07:25:00,67.5,67.5,29.74,West,269,2.0,2.0,100,0.00,,,0.00,Wunderground v.1.15,2013-06-27 11:25:00,
2013-06-27 07:30:00,67.8,67.8,29.74,West,269,1.0,1.0,100,0.00,,,0.00,Wunderground v.1.15,2013-06-27 11:30:00,
2013-06-27 07:40:00,68.3,68.3,29.74,West,269,1.0,2.0,100,0.00,,,0.00,Wunderground v.1.15,2013-06-27 11:40:00,
2013-06-27 07:50:00,69.1,69.1,29.74,West,269,0.0,0.0,100,0.00,,,0.00,Wunderground v.1.15,2013-06-27 11:50:00,
2013-06-27 08:00:00,69.9,69.6,29.73,West,269,0.0,0.0,99,0.00,,,0.00,Wunderground v.1.15,2013-06-27 12:00:00,
2013-06-27 08:05:00,70.3,70.0,29.74,West,269,0.0,0.0,99,0.00,,,0.00,Wunderground v.1.15,2013-06-27 12:05:00,
2013-06-27 08:15:00,71.3,70.4,29.73,West,269,0.0,1.0,97,0.00,,,0.00,Wunderground v.1.15,2013-06-27 12:15:00,
2013-06-27 08:20:00,71.8,70.6,29.73,West,269,0.0,0.0,96,0.00,,,0.00,Wunderground v.1.15,2013-06-27 12:20:00,
2013-06-27 08:30:00,72.7,70.6,29.73,West,269,0.0,0.0,93,0.00,,,0.00,Wunderground v.1.15,2013-06-27 12:30:00,
2013-06-27 08:40:00,73.5,71.0,29.73,West,269,0.0,0.0,92,0.00,,,0.00,Wunderground v.1.15,2013-06-27 12:40:00,
2013-06-27 08:50:00,74.2,70.7,29.73,West,269,1.0,3.0,89,0.00,,,0.00,Wunderground v.1.15,2013-06-27 12:50:00,
2013-06-27 08:55:00,74.6,71.1,29.72,West,269,1.0,3.0,89,0.00,,,0.00,Wunderground v.1.15,2013-06-27 12:55:00,
2013-06-27 09:05:00,75.0,70.9,29.73,West,269,1.0,1.0,87,0.00,,,0.00,Wunderground v.1.15,2013-06-27 13:05:00,
2013-06-27 09:10:00,75.3,71.5,29.73,West,269,0.0,0.0,88,0.00,,,0.00,Wunderground v.1.15,2013-06-27 13:10:00,
2013-06-27 09:20:00,75.9,71.8,29.72,West,269,0.0,0.0,87,0.00,,,0.00,Wunderground v.1.15,2013-06-27 13:20:00,
2013-06-27 09:25:00,76.3,72.1,29.72,West,269,0.0,0.0,87,0.00,,,0.00,Wunderground v.1.15,2013-06-27 13:25:00,
2013-06-27 09:35:00,76.9,72.0,29.72,West,269,0.0,0.0,85,0.00,,,0.00,Wunderground v.1.15,2013-06-27 13:35:00,
2013-06-27 09:40:00,77.4,72.9,29.72,West,269,0.0,0.0,86,0.00,,,0.00,Wunderground v.1.15,2013-06-27 13:40:00,
2013-06-27 09:50:00,77.9,72.3,29.72,West,269,0.0,0.0,83,0.00,,,0.00,Wunderground v.1.15,2013-06-27 13:50:00,
2013-06-27 10:00:00,78.4,72.8,29.72,West,269,0.0,0.0,83,0.00,,,0.00,Wunderground v.1.15,2013-06-27 14:00:00,
2013-06-27 10:05:00,78.7,72.4,29.72,West,269,0.0,2.0,81,0.00,,,0.00,Wunderground v.1.15,2013-06-27 14:05:00,
2013-06-27 10:15:00,78.9,72.6,29.71,West,269,1.0,1.0,81,0.00,,,0.00,Wunderground v.1.15,2013-06-27 14:15:00,
2013-06-27 10:20:00,79.1,72.4,29.71,West,269,1.0,1.0,80,0.00,,,0.00,Wunderground v.1.15,2013-06-27 14:20:00,
2013-06-27 10:30:00,79.6,72.5,29.70,West,269,1.0,3.0,79,0.00,,,0.00,Wunderground v.1.15,2013-06-27 14:30:00,
2013-06-27 10:35:00,79.8,72.7,29.70,West,269,2.0,3.0,79,0.00,,,0.00,Wunderground v.1.15,2013-06-27 14:35:00,
2013-06-27 10:45:00,79.5,72.8,29.70,West,269,1.0,1.0,80,0.00,,,0.00,Wunderground v.1.15,2013-06-27 14:45:00,
2013-06-27 10:50:00,79.4,73.1,29.70,West,269,1.0,3.0,81,0.00,,,0.00,Wunderground v.1.15,2013-06-27 14:50:00,
2013-06-27 11:00:00,79.8,73.4,29.70,West,269,0.0,0.0,81,0.00,,,0.00,Wunderground v.1.15,2013-06-27 15:00:00,
2013-06-27 11:10:00,80.3,73.2,29.70,West,269,1.0,1.0,79,0.00,,,0.00,Wunderground v.1.15,2013-06-27 15:10:00,
2013-06-27 11:20:00,80.5,73.0,29.70,West,269,0.0,1.0,78,0.00,,,0.00,Wunderground v.1.15,2013-06-27 15:20:00,
2013-06-27 11:25:00,80.6,73.5,29.70,West,269,1.0,3.0,79,0.00,,,0.00,Wunderground v.1.15,2013-06-27 15:25:00,
2013-06-27 11:30:00,80.6,73.1,29.70,West,269,1.0,1.0,78,0.00,,,0.00,Wunderground v.1.15,2013-06-27 15:30:00,
2013-06-27 11:40:00,80.9,73.4,29.70,West,269,0.0,0.0,78,0.00,,,0.00,Wunderground v.1.15,2013-06-27 15:40:00,
2013-06-27 11:50:00,81.1,72.4,29.69,West,269,0.0,0.0,75,0.00,,,0.00,Wunderground v.1.15,2013-06-27 15:50:00,
2013-06-27 12:00:00,81.3,72.6,29.69,West,269,0.0,0.0,75,0.00,,,0.00,Wunderground v.1.15,2013-06-27 16:00:00,
2013-06-27 12:10:00,81.3,72.2,29.70,West,269,1.0,1.0,74,0.00,,,0.00,Wunderground v.1.15,2013-06-27 16:10:00,
2013-06-27 12:20:00,81.1,72.8,29.70,West,269,0.0,0.0,76,0.00,,,0.00,Wunderground v.1.15,2013-06-27 16:20:00,
2013-06-27 12:30:00,80.9,72.6,29.70,West,269,0.0,0.0,76,0.00,,,0.00,Wunderground v.1.15,2013-06-27 16:30:00,
2013-06-27 12:35:00,80.8,72.1,29.70,West,269,0.0,0.0,75,0.00,,,0.00,Wunderground v.1.15,2013-06-27 16:35:00,
2013-06-27 12:45:00,80.5,72.2,29.70,West,269,0.0,0.0,76,0.00,,,0.00,Wunderground v.1.15,2013-06-27 16:45:00,
2013-06-27 12:55:00,80.5,73.0,29.70,West,269,0.0,0.0,78,0.00,,,0.00,Wunderground v.1.15,2013-06-27 16:55:00,
2013-06-27 13:05:00,80.6,73.1,29.69,West,269,0.0,0.0,78,0.00,,,0.00,Wunderground v.1.15,2013-06-27 17:05:00,
2013-06-27 13:10:00,80.6,72.7,29.69,West,269,0.0,0.0,77,0.00,,,0.00,Wunderground v.1.15,2013-06-27 17:10:00,
2013-06-27 13:20:00,80.7,73.6,29.69,West,269,0.0,0.0,79,0.00,,,0.00,Wunderground v.1.15,2013-06-27 17:20:00,
2013-06-27 13:25:00,80.6,73.1,29.69,West,269,0.0,0.0,78,0.00,,,0.00,Wunderground v.1.15,2013-06-27 17:25:00,
2013-06-27 13:35:00,80.7,73.6,29.69,West,269,0.0,0.0,79,0.00,,,0.00,Wunderground v.1.15,2013-06-27 17:35:00,
2013-06-27 13:45:00,80.7,73.2,29.69,West,269,0.0,0.0,78,0.00,,,0.00,Wunderground v.1.15,2013-06-27 17:45:00,
2013-06-27 13:50:00,80.8,73.7,29.69,West,269,0.0,0.0,79,0.00,,,0.00,Wunderground v.1.15,2013-06-27 17:50:00,
2013-06-27 14:00:00,80.6,73.1,29.68,West,269,0.0,0.0,78,0.00,,,0.00,Wunderground v.1.15,2013-06-27 18:00:00,
2013-06-27 14:05:00,80.6,73.5,29.68,West,269,0.0,0.0,79,0.00,,,0.00,Wunderground v.1.15,2013-06-27 18:05:00,
2013-06-27 14:15:00,80.5,73.4,29.68,West,269,0.0,0.0,79,0.00,,,0.00,Wunderground v.1.15,2013-06-27 18:15:00,
2013-06-27 14:25:00,80.2,73.1,29.68,West,269,0.0,0.0,79,0.00,,,0.00,Wunderground v.1.15,2013-06-27 18:25:00,
2013-06-27 14:35:00,79.8,73.1,29.67,West,269,0.0,0.0,80,0.00,,,0.00,Wunderground v.1.15,2013-06-27 18:35:00,
2013-06-27 14:45:00,79.5,73.5,29.67,West,269,0.0,0.0,82,0.00,,,0.00,Wunderground v.1.15,2013-06-27 18:45:00,
2013-06-27 14:50:00,79.3,73.3,29.67,West,269,0.0,0.0,82,0.00,,,0.00,Wunderground v.1.15,2013-06-27 18:50:00,
2013-06-27 15:00:00,79.1,73.5,29.67,West,269,0.0,0.0,83,0.00,,,0.00,Wunderground v.1.15,2013-06-27 19:00:00,
2013-06-27 15:05:00,79.0,73.4,29.67,West,269,0.0,1.0,83,0.00,,,0.00,Wunderground v.1.15,2013-06-27 19:05:00,
2013-06-27 15:15:00,78.8,73.2,29.67,West,269,0.0,0.0,83,0.00,,,0.00,Wunderground v.1.15,2013-06-27 19:15:00,
2013-06-27 15:25:00,78.7,72.7,29.67,West,269,0.0,0.0,82,0.00,,,0.00,Wunderground v.1.15,2013-06-27 19:25:00,
2013-06-27 15:35:00,78.3,72.7,29.66,West,269,0.0,0.0,83,0.00,,,0.00,Wunderground v.1.15,2013-06-27 19:35:00,
2013-06-27 15:45:00,78.4,73.2,29.66,West,269,0.0,0.0,84,0.00,,,0.00,Wunderground v.1.15,2013-06-27 19:45:00,
2013-06-27 15:50:00,78.4,73.2,29.66,West,269,0.0,0.0,84,0.00,,,0.00,Wunderground v.1.15,2013-06-27 19:50:00,
2013-06-27 16:00:00,78.3,73.4,29.66,West,269,0.0,0.0,85,0.00,,,0.00,Wunderground v.1.15,2013-06-27 20:00:00,
2013-06-27 16:05:00,78.2,73.0,29.66,West,269,0.0,0.0,84,0.00,,,0.00,Wunderground v.1.15,2013-06-27 20:05:00,
2013-06-27 16:15:00,78.2,73.3,29.66,West,269,0.0,0.0,85,0.00,,,0.00,Wunderground v.1.15,2013-06-27 20:15:00,
2013-06-27 16:25:00,78.0,73.1,29.65,West,269,0.0,0.0,85,0.00,,,0.00,Wunderground v.1.15,2013-06-27 20:25:00,
2013-06-27 16:30:00,77.8,72.9,29.65,West,269,0.0,0.0,85,0.00,,,0.00,Wunderground v.1.15,2013-06-27 20:30:00,
2013-06-27 16:40:00,77.8,73.3,29.65,West,269,0.0,0.0,86,0.00,,,0.00,Wunderground v.1.15,2013-06-27 20:40:00,
2013-06-27 16:45:00,77.7,73.5,29.66,West,269,0.0,0.0,87,0.00,,,0.00,Wunderground v.1.15,2013-06-27 20:45:00,
2013-06-27 16:55:00,77.7,73.5,29.65,West,269,0.0,0.0,87,0.00,,,0.00,Wunderground v.1.15,2013-06-27 20:55:00,
2013-06-27 17:05:00,77.6,73.4,29.65,West,269,0.0,0.0,87,0.00,,,0.00,Wunderground v.1.15,2013-06-27 21:05:00,
2013-06-27 17:15:00,77.3,73.1,29.64,West,269,0.0,1.0,87,0.00,,,0.00,Wunderground v.1.15,2013-06-27 21:15:00,
2013-06-27 17:25:00,77.0,73.2,29.64,West,269,0.0,0.0,88,0.00,,,0.00,Wunderground v.1.15,2013-06-27 21:25:00,
2013-06-27 17:30:00,76.8,72.6,29.64,West,269,0.0,0.0,87,0.00,,,0.00,Wunderground v.1.15,2013-06-27 21:30:00,
2013-06-27 17:40:00,76.5,72.3,29.64,West,269,1.0,1.0,87,0.00,,,0.00,Wunderground v.1.15,2013-06-27 21:40:00,
2013-06-27 17:45:00,76.3,72.1,29.63,West,269,0.0,1.0,87,0.00,,,0.00,Wunderground v.1.15,2013-06-27 21:45:00,
2013-06-27 17:55:00,76.1,71.9,29.63,West,269,0.0,0.0,87,0.00,,,0.00,Wunderground v.1.15,2013-06-27 21:55:00,
2013-06-27 18:00:00,76.0,71.8,29.63,West,269,0.0,0.0,87,0.00,,,0.00,Wunderground v.1.15,2013-06-27 22:00:00,
2013-06-27 18:10:00,75.8,71.7,29.63,West,269,0.0,0.0,87,0.00,,,0.00,Wunderground v.1.15,2013-06-27 22:10:00,
2013-06-27 18:15:00,75.7,71.6,29.62,West,269,0.0,0.0,87,0.00,,,0.00,Wunderground v.1.15,2013-06-27 22:15:00,
2013-06-27 18:25:00,75.5,71.7,29.62,West,269,0.0,0.0,88,0.00,,,0.00,Wunderground v.1.15,2013-06-27 22:25:00,
2013-06-27 18:35:00,75.4,71.6,29.62,West,269,0.0,0.0,88,0.00,,,0.00,Wunderground v.1.15,2013-06-27 22:35:00,
2013-06-27 18:40:00,75.3,71.5,29.62,West,269,0.0,0.0,88,0.00,,,0.00,Wunderground v.1.15,2013-06-27 22:40:00,
2013-06-27 18:50:00,75.1,71.6,29.63,West,269,0.0,0.0,89,0.00,,,0.00,Wunderground v.1.15,2013-06-27 22:50:00,
2013-06-27 19:00:00,74.0,67.1,29.64,SSE,161,5.0,5.0,79,0.00,,,0.00,Wunderground v.1.15,2013-06-27 23:00:00,
2013-06-27 19:10:00,72.6,65.3,29.65,South,178,5.0,9.0,78,0.00,,,0.00,Wunderground v.1.15,2013-06-27 23:10:00,
2013-06-27 19:20:00,71.8,64.9,29.63,South,178,6.0,9.0,79,0.00,,,0.00,Wunderground v.1.15,2013-06-27 23:20:00,
2013-06-27 19:30:00,71.3,64.4,29.63,South,182,5.0,5.0,79,0.00,,,0.00,Wunderground v.1.15,2013-06-27 23:30:00,
2013-06-27 19:35:00,71.1,63.9,29.63,South,178,3.0,5.0,78,0.00,,,0.00,Wunderground v.1.15,2013-06-27 23:35:00,
2013-06-27 19:45:00,71.1,64.6,29.63,SSE,167,4.0,5.0,80,0.00,,,0.00,Wunderground v.1.15,2013-06-27 23:45:00,
2013-06-27 19:55:00,71.1,64.6,29.63,SSE,167,1.0,2.0,80,0.00,,,0.00,Wunderground v.1.15,2013-06-27 23:55:00,
2013-06-27 20:05:00,71.0,65.2,29.62,SSE,167,0.0,0.0,82,0.00,,,0.00,Wunderground v.1.15,2013-06-28 00:05:00,
2013-06-27 20:20:00,70.9,65.1,29.63,SSE,167,0.0,0.0,82,0.00,,,0.00,Wunderground v.1.15,2013-06-28 00:20:00,
2013-06-27 20:30:00,70.8,65.4,29.62,SSE,167,0.0,0.0,83,0.00,,,0.00,Wunderground v.1.15,2013-06-28 00:30:00,
2013-06-27 20:35:00,70.7,65.3,29.62,SSE,167,0.0,0.0,83,0.00,,,0.00,Wunderground v.1.15,2013-06-28 00:35:00,
2013-06-27 20:45:00,70.6,65.5,29.62,SSE,167,0.0,0.0,84,0.00,,,0.00,Wunderground v.1.15,2013-06-28 00:45:00,
2013-06-27 21:05:00,70.2,65.5,29.62,SSE,167,0.0,0.0,85,0.00,,,0.00,Wunderground v.1.15,2013-06-28 01:05:00,
2013-06-27 21:15:00,70.0,65.6,29.62,SSE,167,0.0,0.0,86,0.00,,,0.00,Wunderground v.1.15,2013-06-28 01:15:00,
2013-06-27 21:25:00,69.9,65.5,29.62,SSE,167,0.0,0.0,86,0.00,,,0.00,Wunderground v.1.15,2013-06-28 01:25:00,
2013-06-27 21:35:00,69.7,65.3,29.62,SSE,167,0.0,0.0,86,0.00,,,0.00,Wunderground v.1.15,2013-06-28 01:35:00,
2013-06-27 21:40:00,69.6,65.6,29.62,SSE,167,0.0,0.0,87,0.00,,,0.00,Wunderground v.1.15,2013-06-28 01:40:00,
2013-06-27 21:50:00,69.4,65.7,29.61,SSE,167,0.0,0.0,88,0.00,,,0.00,Wunderground v.1.15,2013-06-28 01:50:00,
2013-06-27 22:00:00,69.3,65.9,29.61,SSE,167,0.0,0.0,89,0.00,,,0.00,Wunderground v.1.15,2013-06-28 02:00:00,
2013-06-27 22:05:00,69.2,66.1,29.61,SSE,167,0.0,0.0,90,0.00,,,0.00,Wunderground v.1.15,2013-06-28 02:05:00,
2013-06-27 22:15:00,69.0,65.9,29.61,SSE,167,0.0,0.0,90,0.00,,,0.00,Wunderground v.1.15,2013-06-28 02:15:00,
2013-06-27 22:25:00,68.8,66.4,29.62,East,84,2.0,2.0,92,0.00,,,0.00,Wunderground v.1.15,2013-06-28 02:25:00,
2013-06-27 22:35:00,68.6,66.5,29.62,East,82,2.0,3.0,93,0.00,,,0.00,Wunderground v.1.15,2013-06-28 02:35:00,
2013-06-27 22:45:00,68.1,66.0,29.63,NE,49,2.0,5.0,93,0.53,,,0.07,Wunderground v.1.15,2013-06-28 02:45:00,
2013-06-27 22:55:00,67.3,65.2,29.63,ENE,69,1.0,1.0,93,0.79,,,0.18,Wunderground v.1.15,2013-06-28 02:55:00,
2013-06-27 23:05:00,66.8,65.0,29.62,ENE,68,0.0,0.0,94,0.34,,,0.24,Wunderground v.1.15,2013-06-28 03:05:00,
2013-06-27 23:15:00,66.5,64.7,29.61,ENE,68,0.0,0.0,94,0.10,,,0.25,Wunderground v.1.15,2013-06-28 03:15:00,
2013-06-27 23:20:00,66.4,64.9,29.61,ENE,68,0.0,0.0,95,0.10,,,0.26,Wunderground v.1.15,2013-06-28 03:20:00,
2013-06-27 23:30:00,66.3,64.8,29.60,ENE,68,0.0,0.0,95,0.10,,,0.28,Wunderground v.1.15,2013-06-28 03:30:00,
2013-06-27 23:40:00,66.1,64.9,29.60,ENE,68,0.0,0.0,96,0.05,,,0.28,Wunderground v.1.15,2013-06-28 03:40:00,
2013-06-27 23:50:00,65.9,64.7,29.59,ENE,68,0.0,0.0,96,0.04,,,0.29,Wunderground v.1.15,2013-06-28 03:50:00,
2013-06-27 23:55:00,65.8,64.6,29.59,ENE,68,0.0,0.0,96,0.04,,,0.29,Wunderground v.1.15,2013-06-28 03:55:00,